createdAt,value
2018-11-03T00:01:09.420Z,-21168.94
2018-11-03T00:03:37.743Z,-21161.98
2018-11-03T00:06:06.097Z,-21163.12
2018-11-03T00:08:34.431Z,-21158.14
2018-11-03T00:11:02.941Z,-21164.82
2018-11-03T00:13:31.315Z,-21160.56
2018-11-03T00:15:59.712Z,-21168.37
2018-11-03T00:18:28.116Z,-21172.92
2018-11-03T00:20:56.472Z,-21170.21
2018-11-03T00:23:24.991Z,-21155.30
2018-11-03T00:25:53.334Z,-21146.06
2018-11-03T00:28:21.715Z,-21156.86
2018-11-03T00:30:50.024Z,-21148.90
2018-11-03T00:33:18.340Z,-21144.35
2018-11-03T00:35:46.666Z,-21146.63
2018-11-03T00:38:15.027Z,-21158.57
2018-11-03T00:40:43.472Z,-21153.73
2018-11-03T00:43:11.929Z,-21156.72
2018-11-03T00:45:40.244Z,-21152.89
2018-11-03T00:48:08.637Z,-21156.15
2018-11-03T00:50:37.056Z,-21165.39
2018-11-03T00:53:05.795Z,-21158.42
2018-11-03T00:55:34.280Z,-21157.86
2018-11-03T00:58:03.504Z,-21159.14
2018-11-03T01:00:31.983Z,-21159.84
2018-11-03T01:03:00.292Z,-21156.58
2018-11-03T01:05:28.634Z,-21151.74
2018-11-03T01:07:57.071Z,-21157.57
2018-11-03T01:10:25.387Z,-21162.40
2018-11-03T01:12:53.863Z,-21151.32
2018-11-03T01:15:22.232Z,-21155.16
2018-11-03T01:17:50.644Z,-21149.18
2018-11-03T01:20:19.002Z,-21163.68
2018-11-03T01:22:47.375Z,-21150.18
2018-11-03T01:25:15.763Z,-21141.23
2018-11-03T01:27:44.137Z,-21150.75
2018-11-03T01:30:14.343Z,-21147.77
2018-11-03T01:32:42.830Z,-21148.19
2018-11-03T01:35:11.338Z,-21151.04
2018-11-03T01:37:40.325Z,-21155.86
2018-11-03T01:40:09.925Z,-21161.84
2018-11-03T01:42:38.595Z,-21163.96
2018-11-03T01:45:07.108Z,-21153.45
2018-11-03T01:47:35.891Z,-21146.91
2018-11-03T01:50:06.292Z,-21139.80
2018-11-03T01:52:35.313Z,-21145.78
2018-11-03T01:55:03.880Z,-21154.02
2018-11-03T01:57:32.352Z,-21153.59
2018-11-03T02:00:00.721Z,-21149.90
2018-11-03T02:02:29.019Z,-21147.20
2018-11-03T02:04:57.320Z,-21156.29
2018-11-03T02:07:25.719Z,-21154.45
2018-11-03T02:09:54.160Z,-21157.01
2018-11-03T02:12:22.480Z,-21155.30
2018-11-03T02:14:50.874Z,-21148.05
2018-11-03T02:17:19.245Z,-21154.30
2018-11-03T02:19:47.557Z,-21158.42
2018-11-03T02:22:15.952Z,-21140.52
2018-11-03T02:24:44.330Z,-21144.07
2018-11-03T02:27:12.695Z,-21145.78
2018-11-03T02:29:41.018Z,-21153.59
2018-11-03T02:32:09.391Z,-21157.29
2018-11-03T02:34:37.721Z,-21149.18
2018-11-03T02:37:06.068Z,-21149.04
2018-11-03T02:39:34.438Z,-21147.77
2018-11-03T02:42:02.773Z,-21149.33
2018-11-03T02:44:31.172Z,-21145.92
2018-11-03T02:46:59.529Z,-21141.37
2018-11-03T02:49:27.912Z,-21124.00
2018-11-03T02:51:56.252Z,-21137.81
2018-11-03T02:54:24.587Z,-21137.24
2018-11-03T02:56:53.030Z,-21142.79
2018-11-03T02:59:21.440Z,-21139.23
2018-11-03T03:01:49.835Z,-21142.79
2018-11-03T03:04:18.251Z,-21138.95
2018-11-03T03:06:46.579Z,-21140.66
2018-11-03T03:09:15.116Z,-21141.51
2018-11-03T03:11:43.448Z,-21144.78
2018-11-03T03:14:11.824Z,-21123.44
2018-11-03T03:16:40.262Z,-21133.25
2018-11-03T03:19:08.655Z,-21139.80
2018-11-03T03:21:37.106Z,-21133.68
2018-11-03T03:24:05.444Z,-21132.97
2018-11-03T03:26:33.803Z,-21140.37
2018-11-03T03:29:02.230Z,-21126.71
2018-11-03T03:31:30.541Z,-21120.73
2018-11-03T03:33:58.889Z,-21133.97
2018-11-03T03:36:27.163Z,-21131.55
2018-11-03T03:38:55.512Z,-21120.30
2018-11-03T03:41:24.051Z,-21136.81
2018-11-03T03:43:52.320Z,-21125.86
2018-11-03T03:46:20.707Z,-21123.16
2018-11-03T03:48:49.133Z,-21133.97
2018-11-03T03:51:17.446Z,-21138.10
2018-11-03T03:53:45.921Z,-21137.10
2018-11-03T03:56:14.298Z,-21138.52
2018-11-03T03:58:42.621Z,-21133.11
2018-11-03T04:01:10.992Z,-21131.84
2018-11-03T04:03:39.344Z,-21134.54
2018-11-03T04:06:07.723Z,-21132.26
2018-11-03T04:08:36.083Z,-21136.53
2018-11-03T04:11:04.765Z,-21126.14
2018-11-03T04:13:33.164Z,-21123.58
2018-11-03T04:16:01.502Z,-21132.40
2018-11-03T04:18:29.796Z,-21131.12
2018-11-03T04:20:58.303Z,-21120.59
2018-11-03T04:23:26.664Z,-21116.32
2018-11-03T04:25:55.052Z,-21120.02
2018-11-03T04:28:23.398Z,-21111.62
2018-11-03T04:30:51.705Z,-21128.56
2018-11-03T04:33:20.042Z,-21122.16
2018-11-03T04:35:48.436Z,-21129.70
2018-11-03T04:38:16.706Z,-21128.56
2018-11-03T04:40:45.068Z,-21124.43
2018-11-03T04:43:13.412Z,-21129.98
2018-11-03T04:45:41.802Z,-21125.29
2018-11-03T04:48:10.087Z,-21123.58
2018-11-03T04:50:38.468Z,-21130.27
2018-11-03T04:53:06.893Z,-21121.73
2018-11-03T04:55:35.227Z,-21121.16
2018-11-03T04:58:03.496Z,-21109.20
2018-11-03T05:00:31.907Z,-21122.73
2018-11-03T05:03:00.244Z,-21115.75
2018-11-03T05:05:28.564Z,-21118.31
2018-11-03T05:07:56.945Z,-21118.17
2018-11-03T05:10:25.300Z,-21123.58
2018-11-03T05:12:53.631Z,-21116.32
2018-11-03T05:15:21.960Z,-21117.32
2018-11-03T05:17:50.327Z,-21120.30
2018-11-03T05:20:18.792Z,-21124.00
2018-11-03T05:22:47.279Z,-21123.16
2018-11-03T05:25:15.716Z,-21111.34
2018-11-03T05:27:44.188Z,-21115.75
2018-11-03T05:30:12.562Z,-21112.76
2018-11-03T05:32:40.930Z,-21118.88
2018-11-03T05:35:09.221Z,-21117.18
2018-11-03T05:37:38.094Z,-21117.60
2018-11-03T05:40:06.653Z,-21119.31
2018-11-03T05:42:35.052Z,-21124.00
2018-11-03T05:45:03.539Z,-21116.32
2018-11-03T05:47:31.976Z,-21117.74
2018-11-03T05:50:00.415Z,-21121.16
2018-11-03T05:52:28.861Z,-21115.61
2018-11-03T05:54:57.192Z,-21111.34
2018-11-03T05:57:25.530Z,-21109.63
2018-11-03T05:59:53.865Z,-21109.77
2018-11-03T06:02:22.240Z,-21115.04
2018-11-03T06:04:50.567Z,-21110.05
2018-11-03T06:07:19.009Z,-21112.05
2018-11-03T06:09:47.316Z,-21094.81
2018-11-03T06:12:15.596Z,-21098.23
2018-11-03T06:14:43.989Z,-21098.09
2018-11-03T06:17:12.381Z,-21110.91
2018-11-03T06:19:40.759Z,-21108.21
2018-11-03T06:22:09.137Z,-21104.08
2018-11-03T06:24:37.543Z,-21095.67
2018-11-03T06:27:06.008Z,-21093.96
2018-11-03T06:29:34.421Z,-21098.37
2018-11-03T06:32:02.910Z,-21103.93
2018-11-03T06:34:31.285Z,-21096.67
2018-11-03T06:36:59.733Z,-21103.79
2018-11-03T06:39:28.083Z,-21103.79
2018-11-03T06:41:56.448Z,-21102.37
2018-11-03T06:44:24.821Z,-21103.50
2018-11-03T06:46:53.146Z,-21098.66
2018-11-03T06:49:22.707Z,-21092.54
2018-11-03T06:51:52.359Z,-21107.49
2018-11-03T06:54:21.086Z,-21101.80
2018-11-03T06:56:49.378Z,-21102.23
2018-11-03T06:59:18.532Z,-21107.78
2018-11-03T07:01:47.079Z,-21108.21
2018-11-03T07:04:15.516Z,-21102.65
2018-11-03T07:06:43.839Z,-21105.36
2018-11-03T07:09:13.136Z,-21098.09
2018-11-03T07:11:41.524Z,-21103.08
2018-11-03T07:14:10.369Z,-21107.21
2018-11-03T07:16:38.727Z,-21105.50
2018-11-03T07:19:07.218Z,-21096.10
2018-11-03T07:21:35.628Z,-21101.52
2018-11-03T07:24:04.052Z,-21100.66
2018-11-03T07:26:32.372Z,-21106.36
2018-11-03T07:29:00.810Z,-21106.21
2018-11-03T07:31:29.182Z,-21107.35
2018-11-03T07:33:57.784Z,-21105.50
2018-11-03T07:36:26.085Z,-21114.90
2018-11-03T07:38:54.536Z,-21109.91
2018-11-03T07:41:22.811Z,-21115.75
2018-11-03T07:43:51.083Z,-21104.79
2018-11-03T07:46:19.422Z,-21119.45
2018-11-03T07:48:48.138Z,-21122.01
2018-11-03T07:51:16.361Z,-21125.00
2018-11-03T07:53:44.655Z,-21130.84
2018-11-03T07:56:12.987Z,-21133.40
2018-11-03T07:58:41.355Z,-21130.84
2018-11-03T08:01:09.812Z,-21145.06
2018-11-03T08:03:38.187Z,-21136.81
2018-11-03T08:06:06.551Z,-21138.52
2018-11-03T08:08:34.882Z,-21142.22
2018-11-03T08:11:03.388Z,-21154.02
2018-11-03T08:13:31.733Z,-21147.34
2018-11-03T08:16:00.341Z,-21141.79
2018-11-03T08:18:28.703Z,-21136.24
2018-11-03T08:20:57.107Z,-21154.45
2018-11-03T08:23:25.437Z,-21151.18
2018-11-03T08:25:53.845Z,-21158.42
2018-11-03T08:28:22.132Z,-21156.44
2018-11-03T08:30:50.499Z,-21161.70
2018-11-03T08:33:18.882Z,-21157.71
2018-11-03T08:35:47.264Z,-21170.79
2018-11-03T08:38:15.711Z,-21166.95
2018-11-03T08:40:43.996Z,-21171.64
2018-11-03T08:43:12.332Z,-21172.06
2018-11-03T08:45:40.743Z,-21168.65
2018-11-03T08:48:09.200Z,-21178.74
2018-11-03T08:50:37.527Z,-21183.29
2018-11-03T08:53:05.873Z,-21183.86
2018-11-03T08:55:34.267Z,-21185.41
2018-11-03T08:58:02.583Z,-21183.43
2018-11-03T09:00:31.019Z,-21190.52
2018-11-03T09:02:59.406Z,-21181.01
2018-11-03T09:05:27.757Z,-21189.96
2018-11-03T09:07:56.147Z,-21204.71
2018-11-03T09:10:24.496Z,-21187.12
2018-11-03T09:12:53.030Z,-21191.09
2018-11-03T09:15:21.494Z,-21193.65
2018-11-03T09:17:49.703Z,-21197.05
2018-11-03T09:20:18.058Z,-21199.32
2018-11-03T09:22:46.496Z,-21208.54
2018-11-03T09:25:15.680Z,-21211.95
2018-11-03T09:27:44.410Z,-21222.86
2018-11-03T09:30:14.937Z,-21223.86
2018-11-03T09:32:43.339Z,-21226.13
2018-11-03T09:35:12.824Z,-21219.60
2018-11-03T09:37:41.224Z,-21225.56
2018-11-03T09:40:11.871Z,-21230.52
2018-11-03T09:42:40.360Z,-21235.76
2018-11-03T09:45:09.691Z,-21233.07
2018-11-03T09:47:37.932Z,-21228.53
2018-11-03T09:50:07.176Z,-21229.52
2018-11-03T09:52:35.519Z,-21226.13
2018-11-03T09:55:03.904Z,-21226.83
2018-11-03T09:57:32.271Z,-21241.99
2018-11-03T10:00:00.623Z,-21246.95
2018-11-03T10:02:29.002Z,-21238.02
2018-11-03T10:04:57.419Z,-21244.96
2018-11-03T10:07:25.719Z,-21233.49
2018-11-03T10:09:54.147Z,-21252.18
2018-11-03T10:12:22.535Z,-21254.87
2018-11-03T10:14:50.925Z,-21247.79
2018-11-03T10:17:19.463Z,-21240.57
2018-11-03T10:19:47.792Z,-21244.25
2018-11-03T10:22:16.158Z,-21235.90
2018-11-03T10:24:44.599Z,-21235.76
2018-11-03T10:27:12.931Z,-21231.65
2018-11-03T10:29:41.269Z,-21231.65
2018-11-03T10:32:09.613Z,-21236.47
2018-11-03T10:34:38.020Z,-21233.35
2018-11-03T10:37:06.543Z,-21234.06
2018-11-03T10:39:34.976Z,-21239.72
2018-11-03T10:42:03.393Z,-21239.58
2018-11-03T10:44:31.827Z,-21232.50
2018-11-03T10:47:00.156Z,-21232.22
2018-11-03T10:49:28.617Z,-21231.23
2018-11-03T10:51:56.967Z,-21229.10
2018-11-03T10:54:25.503Z,-21232.93
2018-11-03T10:56:53.907Z,-21239.02
2018-11-03T10:59:22.483Z,-21239.87
2018-11-03T11:01:55.931Z,-21239.44
2018-11-03T11:04:29.588Z,-21235.19
2018-11-03T11:07:02.970Z,-21239.02
2018-11-03T11:09:35.420Z,-21249.07
2018-11-03T11:12:10.147Z,-21247.09
2018-11-03T11:14:38.585Z,-21243.55
2018-11-03T11:17:07.031Z,-21261.25
2018-11-03T11:19:35.341Z,-21277.65
2018-11-03T11:22:03.697Z,-21281.19
2018-11-03T11:24:32.190Z,-21287.27
2018-11-03T11:27:00.439Z,-21303.38
2018-11-03T11:29:28.796Z,-21311.14
2018-11-03T11:31:57.260Z,-21336.26
2018-11-03T11:34:25.645Z,-21365.43
2018-11-03T11:36:53.966Z,-21375.86
2018-11-03T11:39:22.297Z,-21390.35
2018-11-03T11:41:50.671Z,-21393.87
2018-11-03T11:44:19.088Z,-21397.67
2018-11-03T11:46:47.457Z,-21438.69
2018-11-03T11:49:15.860Z,-21436.16
2018-11-03T11:51:44.232Z,-21442.34
2018-11-03T11:54:12.752Z,-21462.54
2018-11-03T11:56:41.116Z,-21449.22
2018-11-03T11:59:09.589Z,-21468.84
2018-11-03T12:01:38.114Z,-21476.55
2018-11-03T12:04:06.676Z,-21477.95
2018-11-03T12:06:35.026Z,-21473.19
2018-11-03T12:09:03.515Z,-21482.86
2018-11-03T12:11:31.975Z,-21509.73
2018-11-03T12:14:00.311Z,-21463.38
2018-11-03T12:16:28.697Z,-21497.69
2018-11-03T12:18:57.010Z,-21519.65
2018-11-03T12:21:25.356Z,-21505.53
2018-11-03T12:23:53.710Z,-21490.00
2018-11-03T12:26:22.067Z,-21507.07
2018-11-03T12:28:50.447Z,-21531.39
2018-11-03T12:31:18.789Z,-21518.40
2018-11-03T12:33:47.200Z,-21540.61
2018-11-03T12:36:15.655Z,-21543.40
2018-11-03T12:38:44.387Z,-21514.76
2018-11-03T12:41:12.704Z,-21518.81
2018-11-03T12:43:41.040Z,-21537.82
2018-11-03T12:46:09.497Z,-21518.12
2018-11-03T12:48:37.975Z,-21532.23
2018-11-03T12:51:06.398Z,-21538.80
2018-11-03T12:53:34.714Z,-21520.49
2018-11-03T12:56:03.020Z,-21513.64
2018-11-03T12:58:31.344Z,-21539.77
2018-11-03T13:00:59.688Z,-21544.38
2018-11-03T13:03:27.997Z,-21565.17
2018-11-03T13:05:56.383Z,-21571.87
2018-11-03T13:08:24.827Z,-21568.25
2018-11-03T13:10:53.143Z,-21548.43
2018-11-03T13:13:21.587Z,-21533.07
2018-11-03T13:15:49.979Z,-21581.90
2018-11-03T13:18:18.357Z,-21563.78
2018-11-03T13:20:46.798Z,-21564.89
2018-11-03T13:23:15.178Z,-21552.34
2018-11-03T13:25:43.486Z,-21563.91
2018-11-03T13:28:11.866Z,-21574.09
2018-11-03T13:30:40.262Z,-21557.36
2018-11-03T13:33:08.607Z,-21527.20
2018-11-03T13:35:36.993Z,-21461.13
2018-11-03T13:38:05.513Z,-21544.66
2018-11-03T13:40:33.910Z,-21541.59
2018-11-03T13:43:02.346Z,-21578.14
2018-11-03T13:45:30.781Z,-21554.16
2018-11-03T13:47:59.255Z,-21588.03
2018-11-03T13:50:27.590Z,-21530.84
2018-11-03T13:52:56.016Z,-21566.01
2018-11-03T13:55:24.360Z,-21561.68
2018-11-03T13:57:52.740Z,-21529.44
2018-11-03T14:00:21.097Z,-21566.85
2018-11-03T14:02:50.252Z,-21535.03
2018-11-03T14:05:18.617Z,-21520.63
2018-11-03T14:07:46.971Z,-21501.19
2018-11-03T14:10:16.427Z,-21463.94
2018-11-03T14:12:45.655Z,-21479.77
2018-11-03T14:15:15.485Z,-21466.18
2018-11-03T14:17:43.853Z,-21492.80
2018-11-03T14:20:13.297Z,-21505.95
2018-11-03T14:22:42.130Z,-21449.92
2018-11-03T14:25:12.163Z,-21433.50
2018-11-03T14:27:41.136Z,-21387.54
2018-11-03T14:30:10.263Z,-21355.44
2018-11-03T14:32:38.681Z,-21383.88
2018-11-03T14:35:07.948Z,-21382.61
2018-11-03T14:37:44.929Z,-21354.17
2018-11-03T14:40:24.506Z,-21364.87
2018-11-03T14:42:52.999Z,-21347.97
2018-11-03T14:45:21.511Z,-21350.93
2018-11-03T14:47:49.870Z,-21337.25
2018-11-03T14:50:18.261Z,-21337.67
2018-11-03T14:52:46.663Z,-21344.86
2018-11-03T14:55:15.015Z,-21339.22
2018-11-03T14:57:43.323Z,-21346.98
2018-11-03T15:00:15.392Z,-21316.22
2018-11-03T15:02:43.872Z,-21325.82
2018-11-03T15:05:12.820Z,-21333.30
2018-11-03T15:07:41.342Z,-21316.22
2018-11-03T15:10:11.611Z,-21327.80
2018-11-03T15:12:40.689Z,-21321.30
2018-11-03T15:15:11.071Z,-21305.21
2018-11-03T15:17:39.411Z,-21318.35
2018-11-03T15:20:08.519Z,-21321.17
2018-11-03T15:22:37.015Z,-21308.60
2018-11-03T15:25:06.223Z,-21303.38
2018-11-03T15:27:34.664Z,-21318.35
2018-11-03T15:30:02.960Z,-21319.05
2018-11-03T15:32:31.419Z,-21305.49
2018-11-03T15:35:00.157Z,-21302.25
2018-11-03T15:37:28.475Z,-21303.23
2018-11-03T15:39:56.773Z,-21300.13
2018-11-03T15:42:25.174Z,-21288.68
2018-11-03T15:44:53.598Z,-21299.28
2018-11-03T15:47:22.028Z,-21278.22
2018-11-03T15:49:50.588Z,-21283.17
2018-11-03T15:52:18.988Z,-21276.66
2018-11-03T15:54:47.718Z,-21273.84
2018-11-03T15:57:16.086Z,-21282.88
2018-11-03T15:59:44.477Z,-21281.33
2018-11-03T16:02:12.961Z,-21279.49
2018-11-03T16:04:41.436Z,-21279.35
2018-11-03T16:07:09.811Z,-21267.19
2018-11-03T16:09:38.205Z,-21278.36
2018-11-03T16:12:07.327Z,-21262.66
2018-11-03T16:14:35.675Z,-21276.38
2018-11-03T16:17:04.119Z,-21256.72
2018-11-03T16:19:32.649Z,-21260.11
2018-11-03T16:22:01.085Z,-21260.40
2018-11-03T16:24:29.561Z,-21267.33
2018-11-03T16:26:58.013Z,-21262.38
2018-11-03T16:29:27.799Z,-21265.49
2018-11-03T16:31:56.360Z,-21254.17
2018-11-03T16:34:24.846Z,-21246.95
2018-11-03T16:36:53.313Z,-21253.74
2018-11-03T16:39:21.716Z,-21252.75
2018-11-03T16:41:50.198Z,-21253.18
2018-11-03T16:44:18.597Z,-21250.91
2018-11-03T16:46:47.221Z,-21236.47
2018-11-03T16:49:18.248Z,-21233.07
2018-11-03T16:51:46.769Z,-21245.39
2018-11-03T16:54:15.295Z,-21243.26
2018-11-03T16:56:44.398Z,-21238.59
2018-11-03T16:59:12.781Z,-21237.32
2018-11-03T17:01:41.084Z,-21241.57
2018-11-03T17:04:09.631Z,-21233.78
2018-11-03T17:06:38.085Z,-21234.20
2018-11-03T17:09:07.504Z,-21227.68
2018-11-03T17:11:35.952Z,-21233.21
2018-11-03T17:14:04.548Z,-21224.28
2018-11-03T17:16:32.989Z,-21235.19
2018-11-03T17:19:01.488Z,-21241.00
2018-11-03T17:21:29.955Z,-21240.57
2018-11-03T17:23:58.330Z,-21226.69
2018-11-03T17:26:26.751Z,-21211.38
2018-11-03T17:28:55.525Z,-21220.17
2018-11-03T17:31:23.987Z,-21220.88
2018-11-03T17:33:52.469Z,-21221.30
2018-11-03T17:36:20.957Z,-21224.42
2018-11-03T17:38:49.387Z,-21216.34
2018-11-03T17:41:17.812Z,-21222.02
2018-11-03T17:43:46.298Z,-21211.09
2018-11-03T17:46:14.791Z,-21210.53
2018-11-03T17:48:43.204Z,-21212.80
2018-11-03T17:51:11.631Z,-21204.86
2018-11-03T17:53:40.040Z,-21222.30
2018-11-03T17:56:08.389Z,-21217.48
2018-11-03T17:58:36.784Z,-21224.28
2018-11-03T18:01:05.442Z,-21217.76
2018-11-03T18:03:33.747Z,-21224.42
2018-11-03T18:06:02.121Z,-21224.57
2018-11-03T18:08:30.555Z,-21220.17
2018-11-03T18:10:58.985Z,-21215.63
2018-11-03T18:13:27.474Z,-21228.25
2018-11-03T18:15:55.974Z,-21232.36
2018-11-03T18:18:24.535Z,-21226.55
2018-11-03T18:20:52.967Z,-21230.09
2018-11-03T18:23:21.392Z,-21229.24
2018-11-03T18:25:49.876Z,-21226.13
2018-11-03T18:28:18.391Z,-21230.23
2018-11-03T18:30:46.918Z,-21233.92
2018-11-03T18:33:15.208Z,-21232.64
2018-11-03T18:35:43.598Z,-21229.81
2018-11-03T18:38:11.970Z,-21229.95
2018-11-03T18:40:40.429Z,-21221.59
2018-11-03T18:43:08.760Z,-21229.95
2018-11-03T18:45:37.276Z,-21201.73
2018-11-03T18:48:06.005Z,-21217.76
2018-11-03T18:50:34.383Z,-21227.68
2018-11-03T18:53:03.601Z,-21229.52
2018-11-03T18:55:32.046Z,-21206.41
2018-11-03T18:58:00.500Z,-21209.54
2018-11-03T19:00:28.907Z,-21203.29
2018-11-03T19:02:57.345Z,-21221.45
2018-11-03T19:05:25.708Z,-21221.87
2018-11-03T19:07:54.104Z,-21226.97
2018-11-03T19:10:22.476Z,-21228.53
2018-11-03T19:12:50.911Z,-21234.63
2018-11-03T19:15:19.356Z,-21225.70
2018-11-03T19:17:47.812Z,-21226.41
2018-11-03T19:20:16.473Z,-21231.93
2018-11-03T19:22:44.895Z,-21229.10
2018-11-03T19:25:14.091Z,-21233.78
2018-11-03T19:27:42.543Z,-21226.27
2018-11-03T19:30:12.220Z,-21214.07
2018-11-03T19:32:42.211Z,-21221.16
2018-11-03T19:35:10.704Z,-21221.16
2018-11-03T19:37:39.743Z,-21215.78
2018-11-03T19:40:09.556Z,-21215.49
2018-11-03T19:42:38.344Z,-21224.14
2018-11-03T19:45:07.551Z,-21225.27
2018-11-03T19:47:36.009Z,-21228.53
2018-11-03T19:50:05.567Z,-21222.02
2018-11-03T19:52:34.119Z,-21224.99
2018-11-03T19:55:02.434Z,-21221.02
2018-11-03T19:57:30.864Z,-21216.62
2018-11-03T19:59:59.285Z,-21210.10
2018-11-03T20:02:27.636Z,-21216.62
2018-11-03T20:04:56.009Z,-21224.00
2018-11-03T20:07:24.409Z,-21223.01
2018-11-03T20:09:52.892Z,-21223.86
2018-11-03T20:12:21.291Z,-21217.05
2018-11-03T20:14:49.788Z,-21224.14
2018-11-03T20:17:18.120Z,-21218.32
2018-11-03T20:19:46.574Z,-21216.48
2018-11-03T20:22:14.918Z,-21210.39
2018-11-03T20:24:43.296Z,-21218.61
2018-11-03T20:27:11.692Z,-21219.18
2018-11-03T20:29:40.108Z,-21221.16
2018-11-03T20:32:08.728Z,-21213.22
2018-11-03T20:34:37.043Z,-21212.23
2018-11-03T20:37:05.987Z,-21215.78
2018-11-03T20:39:34.498Z,-21212.23
2018-11-03T20:42:02.913Z,-21214.78
2018-11-03T20:44:31.409Z,-21211.80
2018-11-03T20:46:59.900Z,-21220.31
2018-11-03T20:49:28.310Z,-21215.49
2018-11-03T20:51:56.642Z,-21220.03
2018-11-03T20:54:24.982Z,-21211.09
2018-11-03T20:56:53.385Z,-21206.70
2018-11-03T20:59:21.976Z,-21199.18
2018-11-03T21:01:50.366Z,-21201.59
2018-11-03T21:04:18.695Z,-21207.83
2018-11-03T21:06:47.153Z,-21202.02
2018-11-03T21:09:15.584Z,-21210.10
2018-11-03T21:11:44.089Z,-21210.10
2018-11-03T21:14:12.395Z,-21203.72
2018-11-03T21:16:40.882Z,-21204.86
2018-11-03T21:19:09.265Z,-21209.39
2018-11-03T21:21:38.528Z,-21214.07
2018-11-03T21:24:06.947Z,-21209.54
2018-11-03T21:26:35.202Z,-21210.10
2018-11-03T21:29:03.533Z,-21206.27
2018-11-03T21:31:31.886Z,-21209.54
2018-11-03T21:34:00.354Z,-21208.26
2018-11-03T21:36:28.689Z,-21207.69
2018-11-03T21:38:57.156Z,-21199.61
2018-11-03T21:41:25.667Z,-21202.16
2018-11-03T21:43:54.004Z,-21206.98
2018-11-03T21:46:22.435Z,-21204.43
2018-11-03T21:48:50.815Z,-21199.47
2018-11-03T21:51:19.206Z,-21205.28
2018-11-03T21:53:47.618Z,-21199.47
2018-11-03T21:56:16.171Z,-21197.05
2018-11-03T21:58:44.642Z,-21202.02
2018-11-03T22:01:13.033Z,-21200.88
2018-11-03T22:03:42.554Z,-21203.58
2018-11-03T22:06:10.900Z,-21204.57
2018-11-03T22:08:39.216Z,-21210.81
2018-11-03T22:11:07.580Z,-21208.69
2018-11-03T22:13:36.017Z,-21204.86
2018-11-03T22:16:04.504Z,-21206.41
2018-11-03T22:18:33.012Z,-21204.43
2018-11-03T22:21:01.544Z,-21199.04
2018-11-03T22:23:30.061Z,-21206.98
2018-11-03T22:25:58.469Z,-21207.27
2018-11-03T22:28:26.823Z,-21207.41
2018-11-03T22:30:55.348Z,-21200.18
2018-11-03T22:33:23.772Z,-21206.70
2018-11-03T22:35:52.140Z,-21197.34
2018-11-03T22:38:20.934Z,-21190.25
2018-11-03T22:44:18.955Z,-21205.00
2018-11-03T22:47:16.217Z,-21212.09
2018-11-03T22:50:05.455Z,-21213.64
2018-11-03T23:10:16.936Z,-21205.28
2018-11-03T23:23:11.374Z,-21201.88
2018-11-03T23:25:39.889Z,-21203.86
2018-11-03T23:28:08.368Z,-21198.75
2018-11-03T23:30:36.826Z,-21197.62
2018-11-03T23:33:05.301Z,-21197.76
2018-11-03T23:35:33.873Z,-21199.04
2018-11-03T23:38:02.321Z,-21195.92
2018-11-03T23:40:30.801Z,-21192.37
2018-11-03T23:42:59.163Z,-21196.49
2018-11-03T23:45:27.669Z,-21189.82
2018-11-03T23:47:56.288Z,-21188.54
2018-11-03T23:50:24.845Z,-21196.06
2018-11-03T23:52:53.180Z,-21191.95
2018-11-03T23:55:21.703Z,-21181.44
2018-11-03T23:57:50.083Z,-21192.80
